APL Norway — A8NC4 — position and weather

sailwx.info

Track history (hours):
 
Tides and Currents Weather Stations Pressure Air Temp Water Temp Dewpoint Dewpoint Depression Visibility Wind Speed Wind Dir Waves Ship Positions

APL Norway

Last reported at 2016-May-24 09:33 UTC. Time now 2016-May-24 09:53 UTC.
Position N 35°26' E 139°41'.

Length 295 m; draft 11.7 m.

Type: Cargo ship. MMSI: 636013456.

Date/timePositionNaut miles runAvg speedWind from/ knotsBaromVisibWave heightAir tempDewpointWater temp
2016-May-24 09:33N 35°26' E 139°41'0 0.1
2016-May-24 08:33N 35°26' E 139°41'0 0.0
2016-May-24 07:33N 35°26' E 139°41'0 0.0
2016-May-24 06:33N 35°26' E 139°41'0 0.0
2016-May-24 05:33N 35°26' E 139°41'0 0.0
2016-May-24 04:33N 35°26' E 139°41'0 0.0
2016-May-24 03:33N 35°26' E 139°41'0 0.0
2016-May-24 02:33N 35°26' E 139°41'0 0.0
2016-May-24 01:33N 35°26' E 139°41'0 0.0
2016-May-24 00:33N 35°26' E 139°41'0 0.0
2016-May-23 23:33N 35°26' E 139°41'2 2.2
2016-May-23 22:33N 35°25' E 139°43'10 9.7
2016-May-23 21:34N 35°16' E 139°46'1313.0
2016-May-23 20:33N 35°03' E 139°44'1514.2
2016-May-23 19:32N 34°50' E 139°53'1920.0
2016-May-23 18:33N 34°56' E 140°16'2019.8
2016-May-23 17:33N 35°01' E 140°40'2020.0
2016-May-23 16:33N 35°08' E 141°03'2019.9
2016-May-23 15:33N 35°15' E 141°26'1818.6
2016-May-23 14:34N 35°22' E 141°47'1717.0
2016-May-23 13:33N 35°27' E 142°06'1717.0
2016-May-23 12:33N 35°33' E 142°26'1717.2
2016-May-23 11:33N 35°40' E 142°46'1616.6
2016-May-23 10:33N 35°45' E 143°05'1818.1
2016-May-23 09:33N 35°52' E 143°25'  
Track history (hours):
 
Tides and Currents Weather Stations Pressure Air Temp Water Temp Dewpoint Dewpoint Depression Visibility Wind Speed Wind Dir Waves Ship Positions

APL Norway

Last reported at 2016-May-24 09:33 UTC. Time now 2016-May-24 09:53 UTC.
Position N 35°26' E 139°41'.

Length 295 m; draft 11.7 m.

Type: Cargo ship. MMSI: 636013456.

Date/timePositionNaut miles runAvg speedWind from/ knotsBaromVisibWave heightAir tempDewpointWater temp
2016-May-24 09:33N 35°26' E 139°41'0 0.1
2016-May-24 08:33N 35°26' E 139°41'0 0.0
2016-May-24 07:33N 35°26' E 139°41'0 0.0
2016-May-24 06:33N 35°26' E 139°41'0 0.0
2016-May-24 05:33N 35°26' E 139°41'0 0.0
2016-May-24 04:33N 35°26' E 139°41'0 0.0
2016-May-24 03:33N 35°26' E 139°41'0 0.0
2016-May-24 02:33N 35°26' E 139°41'0 0.0
2016-May-24 01:33N 35°26' E 139°41'0 0.0
2016-May-24 00:33N 35°26' E 139°41'0 0.0
2016-May-23 23:33N 35°26' E 139°41'2 2.2
2016-May-23 22:33N 35°25' E 139°43'10 9.7
2016-May-23 21:34N 35°16' E 139°46'1313.0
2016-May-23 20:33N 35°03' E 139°44'1514.2
2016-May-23 19:32N 34°50' E 139°53'1920.0
2016-May-23 18:33N 34°56' E 140°16'2019.8
2016-May-23 17:33N 35°01' E 140°40'2020.0
2016-May-23 16:33N 35°08' E 141°03'2019.9
2016-May-23 15:33N 35°15' E 141°26'1818.6
2016-May-23 14:34N 35°22' E 141°47'1717.0
2016-May-23 13:33N 35°27' E 142°06'1717.0
2016-May-23 12:33N 35°33' E 142°26'1717.2
2016-May-23 11:33N 35°40' E 142°46'1616.6
2016-May-23 10:33N 35°45' E 143°05'1818.1
2016-May-23 09:33N 35°52' E 143°25'  

Dump ship's entire track history